Terminal Aerodrome Forecast
Issued by NWS Atlanta, GA

Home | Current Version | Previous Version | Text Only | Print | Product List | Glossary On
Versions: 1 2 3 4 5 6 7 8 9 10 11 12 13 14
000
FTUS42 KFFC 302323
TAFMCN
TAF
KMCN 302323Z 0100/0124 31005KT P6SM SKC
     FM011600 VRB03KT P6SM FEW040
     FM012300 29004KT P6SM SCT050 SCT250=

USA.gov is the U.S. government's official web portal to all federal, state and local government web resources and services.